KSJT/SJT METAR and TAF weather

Enter ICAO airport designator
Station Type Date Time Source
KSJT METAR 2019/12/09 13:51 UTC NOAA

KSJT 091351Z 21007KT 10SM CLR 13/09 A2987 RMK AO2 SLP104 T01330089 $


Station Type Date Time Source
KSJT Decoded METAR 2019/12/09 13:51 UTC NOAA

MATHIS FIELD, TX, United States (KSJT) 31-21N 100-30W 581M
Dec 09, 2019 - 08:51 AM EST / 2019.12.09 1351 UTC
Wind: from the SSW (210 degrees) at 8 MPH (7 KT):0
Visibility: 10 mile(s):0
Sky conditions: clear
Temperature: 55.9 F (13.3 C)
Dew Point: 48.0 F (8.9 C)
Relative Humidity: 74%
Pressure (altimeter): 29.87 in. Hg (1011 hPa)
ob: KSJT 091351Z 21007KT 10SM CLR 13/09 A2987 RMK AO2 SLP104 T01330089
cycle: 14

Station Type Date Time Source
KSJT TAF 2019/12/09 12:39 UTC NOAA

TAF KSJT 091137Z 0912/1012 25008KT P6SM SCT100 BKN250
FM091600 29012KT P6SM BKN120
FM092200 35012G18KT P6SM OVC100
FM100400 02012KT P6SM -RA OVC025
FM100700 02012KT 5SM RA BR OVC009

Example: see airport list